sensor_id;sensor_type;location;lat;lon;timestamp;temperature;humidity
36186;DHT22;22228;53.222;7.446;2022-09-21T00:00:23;6.10;99.90
36186;DHT22;22228;53.222;7.446;2022-09-21T00:02:43;6.10;99.90
36186;DHT22;22228;53.222;7.446;2022-09-21T00:05:04;6.10;99.90
36186;DHT22;22228;53.222;7.446;2022-09-21T00:07:27;6.20;99.90
36186;DHT22;22228;53.222;7.446;2022-09-21T00:09:47;6.20;99.90
36186;DHT22;22228;53.222;7.446;2022-09-21T00:12:08;6.20;99.90
36186;DHT22;22228;53.222;7.446;2022-09-21T00:14:28;6.30;99.90
36186;DHT22;22228;53.222;7.446;2022-09-21T00:16:50;6.30;99.90
36186;DHT22;22228;53.222;7.446;2022-09-21T00:19:10;6.30;99.90
36186;DHT22;22228;53.222;7.446;2022-09-21T00:21:31;6.40;99.90
36186;DHT22;22228;53.222;7.446;2022-09-21T00:23:53;6.50;99.90
36186;DHT22;22228;53.222;7.446;2022-09-21T00:26:15;6.50;99.90
36186;DHT22;22228;53.222;7.446;2022-09-21T00:28:37;6.50;99.90
36186;DHT22;22228;53.222;7.446;2022-09-21T00:31:00;6.50;99.90
36186;DHT22;22228;53.222;7.446;2022-09-21T00:33:21;6.50;99.90
36186;DHT22;22228;53.222;7.446;2022-09-21T00:35:42;6.50;99.90
36186;DHT22;22228;53.222;7.446;2022-09-21T00:38:03;6.50;99.90
36186;DHT22;22228;53.222;7.446;2022-09-21T00:40:25;6.40;99.90
36186;DHT22;22228;53.222;7.446;2022-09-21T00:42:45;6.40;99.90
36186;DHT22;22228;53.222;7.446;2022-09-21T00:45:09;6.40;99.90
36186;DHT22;22228;53.222;7.446;2022-09-21T00:47:41;6.40;99.90
36186;DHT22;22228;53.222;7.446;2022-09-21T00:50:07;6.40;99.90
36186;DHT22;22228;53.222;7.446;2022-09-21T00:52:31;6.30;99.90
36186;DHT22;22228;53.222;7.446;2022-09-21T00:54:55;6.30;99.90
36186;DHT22;22228;53.222;7.446;2022-09-21T00:57:20;6.30;99.90
36186;DHT22;22228;53.222;7.446;2022-09-21T00:59:42;6.30;99.90
36186;DHT22;22228;53.222;7.446;2022-09-21T01:02:04;6.20;99.90
36186;DHT22;22228;53.222;7.446;2022-09-21T01:04:26;6.20;99.90
36186;DHT22;22228;53.222;7.446;2022-09-21T01:06:48;6.20;99.90
36186;DHT22;22228;53.222;7.446;2022-09-21T01:09:08;6.20;99.90
36186;DHT22;22228;53.222;7.446;2022-09-21T01:11:33;6.10;99.90
36186;DHT22;22228;53.222;7.446;2022-09-21T01:14:10;6.10;99.90
36186;DHT22;22228;53.222;7.446;2022-09-21T01:16:37;6.10;99.90
36186;DHT22;22228;53.222;7.446;2022-09-21T01:19:06;6.00;99.90
36186;DHT22;22228;53.222;7.446;2022-09-21T01:21:33;6.00;99.90
36186;DHT22;22228;53.222;7.446;2022-09-21T01:27:20;6.10;99.90
36186;DHT22;22228;53.222;7.446;2022-09-21T01:29:48;6.00;99.90
36186;DHT22;22228;53.222;7.446;2022-09-21T01:32:13;6.00;99.90
36186;DHT22;22228;53.222;7.446;2022-09-21T01:34:40;6.00;99.90
36186;DHT22;22228;53.222;7.446;2022-09-21T01:37:06;5.90;99.90
36186;DHT22;22228;53.222;7.446;2022-09-21T01:39:28;5.90;99.90
36186;DHT22;22228;53.222;7.446;2022-09-21T01:41:50;5.80;99.90
36186;DHT22;22228;53.222;7.446;2022-09-21T01:44:14;5.80;99.90
36186;DHT22;22228;53.222;7.446;2022-09-21T01:46:39;5.70;99.90
36186;DHT22;22228;53.222;7.446;2022-09-21T01:49:08;5.70;99.90
36186;DHT22;22228;53.222;7.446;2022-09-21T01:51:31;5.70;99.90
36186;DHT22;22228;53.222;7.446;2022-09-21T01:53:55;5.70;99.90
36186;DHT22;22228;53.222;7.446;2022-09-21T01:56:21;5.70;99.90
36186;DHT22;22228;53.222;7.446;2022-09-21T01:58:46;5.60;99.90
36186;DHT22;22228;53.222;7.446;2022-09-21T02:01:11;5.60;99.90
36186;DHT22;22228;53.222;7.446;2022-09-21T02:03:37;5.50;99.90
36186;DHT22;22228;53.222;7.446;2022-09-21T02:05:58;5.50;99.90
36186;DHT22;22228;53.222;7.446;2022-09-21T02:08:19;5.50;99.90
36186;DHT22;22228;53.222;7.446;2022-09-21T02:10:44;5.50;99.90
36186;DHT22;22228;53.222;7.446;2022-09-21T02:13:05;5.50;99.90
36186;DHT22;22228;53.222;7.446;2022-09-21T02:15:31;5.60;99.90
36186;DHT22;22228;53.222;7.446;2022-09-21T02:18:00;5.60;99.90
36186;DHT22;22228;53.222;7.446;2022-09-21T02:20:29;5.50;99.90
36186;DHT22;22228;53.222;7.446;2022-09-21T02:22:59;5.50;99.90
36186;DHT22;22228;53.222;7.446;2022-09-21T02:25:29;5.40;99.90
36186;DHT22;22228;53.222;7.446;2022-09-21T02:27:54;5.40;99.90
36186;DHT22;22228;53.222;7.446;2022-09-21T02:30:18;5.40;99.90
36186;DHT22;22228;53.222;7.446;2022-09-21T02:32:43;5.40;99.90
36186;DHT22;22228;53.222;7.446;2022-09-21T02:35:14;5.40;99.90
36186;DHT22;22228;53.222;7.446;2022-09-21T02:37:44;5.40;99.90
36186;DHT22;22228;53.222;7.446;2022-09-21T02:40:15;5.40;99.90
36186;DHT22;22228;53.222;7.446;2022-09-21T02:42:43;5.40;99.90
36186;DHT22;22228;53.222;7.446;2022-09-21T02:45:09;5.40;99.90
36186;DHT22;22228;53.222;7.446;2022-09-21T02:47:34;5.40;99.90
36186;DHT22;22228;53.222;7.446;2022-09-21T02:50:00;5.40;99.90
36186;DHT22;22228;53.222;7.446;2022-09-21T02:52:22;5.40;99.90
36186;DHT22;22228;53.222;7.446;2022-09-21T02:54:48;5.40;99.90
36186;DHT22;22228;53.222;7.446;2022-09-21T02:57:09;5.40;99.90
36186;DHT22;22228;53.222;7.446;2022-09-21T02:59:31;5.40;99.90
36186;DHT22;22228;53.222;7.446;2022-09-21T03:01:52;5.30;99.90
36186;DHT22;22228;53.222;7.446;2022-09-21T03:04:13;5.40;99.90
36186;DHT22;22228;53.222;7.446;2022-09-21T03:06:34;5.30;99.90
36186;DHT22;22228;53.222;7.446;2022-09-21T03:08:54;5.30;99.90
36186;DHT22;22228;53.222;7.446;2022-09-21T03:11:19;5.30;99.90
36186;DHT22;22228;53.222;7.446;2022-09-21T03:13:39;5.30;99.90
36186;DHT22;22228;53.222;7.446;2022-09-21T03:16:01;5.20;99.90
36186;DHT22;22228;53.222;7.446;2022-09-21T03:18:22;5.20;99.90
36186;DHT22;22228;53.222;7.446;2022-09-21T03:20:44;5.10;99.90
36186;DHT22;22228;53.222;7.446;2022-09-21T03:23:05;5.10;99.90
36186;DHT22;22228;53.222;7.446;2022-09-21T03:25:26;5.20;99.90
36186;DHT22;22228;53.222;7.446;2022-09-21T03:27:47;5.20;99.90
36186;DHT22;22228;53.222;7.446;2022-09-21T03:30:12;5.20;99.90
36186;DHT22;22228;53.222;7.446;2022-09-21T03:32:32;5.10;99.90
36186;DHT22;22228;53.222;7.446;2022-09-21T03:34:53;5.10;99.90
36186;DHT22;22228;53.222;7.446;2022-09-21T03:37:13;5.00;99.90
36186;DHT22;22228;53.222;7.446;2022-09-21T03:39:33;5.00;99.90
36186;DHT22;22228;53.222;7.446;2022-09-21T03:41:54;5.00;99.90
36186;DHT22;22228;53.222;7.446;2022-09-21T03:44:16;5.00;99.90
36186;DHT22;22228;53.222;7.446;2022-09-21T03:46:38;4.90;99.90
36186;DHT22;22228;53.222;7.446;2022-09-21T03:48:58;4.90;99.90
36186;DHT22;22228;53.222;7.446;2022-09-21T03:51:18;4.90;99.90
36186;DHT22;22228;53.222;7.446;2022-09-21T03:53:39;4.90;99.90
36186;DHT22;22228;53.222;7.446;2022-09-21T03:56:00;4.80;99.90
36186;DHT22;22228;53.222;7.446;2022-09-21T03:58:20;4.90;99.90
36186;DHT22;22228;53.222;7.446;2022-09-21T04:00:42;4.90;99.90
36186;DHT22;22228;53.222;7.446;2022-09-21T04:03:02;4.90;99.90
36186;DHT22;22228;53.222;7.446;2022-09-21T04:05:23;4.90;99.90
36186;DHT22;22228;53.222;7.446;2022-09-21T04:07:44;4.90;99.90
36186;DHT22;22228;53.222;7.446;2022-09-21T04:10:07;4.90;99.90
36186;DHT22;22228;53.222;7.446;2022-09-21T04:12:28;4.90;99.90
36186;DHT22;22228;53.222;7.446;2022-09-21T04:14:49;4.90;99.90
36186;DHT22;22228;53.222;7.446;2022-09-21T04:17:10;5.00;99.90
36186;DHT22;22228;53.222;7.446;2022-09-21T04:19:31;5.00;99.90
36186;DHT22;22228;53.222;7.446;2022-09-21T04:21:52;5.00;99.90
36186;DHT22;22228;53.222;7.446;2022-09-21T04:24:13;4.90;99.90
36186;DHT22;22228;53.222;7.446;2022-09-21T04:26:35;4.90;99.90
36186;DHT22;22228;53.222;7.446;2022-09-21T04:28:55;4.90;99.90
36186;DHT22;22228;53.222;7.446;2022-09-21T04:31:16;4.90;99.90
36186;DHT22;22228;53.222;7.446;2022-09-21T04:33:38;4.80;99.90
36186;DHT22;22228;53.222;7.446;2022-09-21T04:36:00;4.80;99.90
36186;DHT22;22228;53.222;7.446;2022-09-21T04:38:20;4.80;99.90
36186;DHT22;22228;53.222;7.446;2022-09-21T04:40:41;4.90;99.90
36186;DHT22;22228;53.222;7.446;2022-09-21T04:43:01;4.80;99.90
36186;DHT22;22228;53.222;7.446;2022-09-21T04:45:22;4.80;99.90
36186;DHT22;22228;53.222;7.446;2022-09-21T04:47:43;4.80;99.90
36186;DHT22;22228;53.222;7.446;2022-09-21T04:50:06;4.70;99.90
36186;DHT22;22228;53.222;7.446;2022-09-21T04:52:26;4.80;99.90
36186;DHT22;22228;53.222;7.446;2022-09-21T04:54:47;4.80;99.90
36186;DHT22;22228;53.222;7.446;2022-09-21T04:57:08;4.70;99.90
36186;DHT22;22228;53.222;7.446;2022-09-21T04:59:28;4.70;99.90
36186;DHT22;22228;53.222;7.446;2022-09-21T05:01:49;4.60;99.90
36186;DHT22;22228;53.222;7.446;2022-09-21T05:04:09;4.60;99.90
36186;DHT22;22228;53.222;7.446;2022-09-21T05:06:32;4.60;99.90
36186;DHT22;22228;53.222;7.446;2022-09-21T05:08:53;4.60;99.90
36186;DHT22;22228;53.222;7.446;2022-09-21T05:11:31;4.70;99.90
36186;DHT22;22228;53.222;7.446;2022-09-21T05:13:51;4.70;99.90
36186;DHT22;22228;53.222;7.446;2022-09-21T05:16:12;4.70;99.90
36186;DHT22;22228;53.222;7.446;2022-09-21T05:18:33;4.70;99.90
36186;DHT22;22228;53.222;7.446;2022-09-21T05:20:53;4.70;99.90
36186;DHT22;22228;53.222;7.446;2022-09-21T05:23:15;4.70;99.90
36186;DHT22;22228;53.222;7.446;2022-09-21T05:25:35;4.80;99.90
36186;DHT22;22228;53.222;7.446;2022-09-21T05:27:56;4.90;99.90
36186;DHT22;22228;53.222;7.446;2022-09-21T05:30:17;4.80;99.90
36186;DHT22;22228;53.222;7.446;2022-09-21T05:32:44;4.80;99.90
36186;DHT22;22228;53.222;7.446;2022-09-21T05:35:11;4.70;99.90
36186;DHT22;22228;53.222;7.446;2022-09-21T05:37:44;4.70;99.90
36186;DHT22;22228;53.222;7.446;2022-09-21T05:40:09;4.60;99.90
36186;DHT22;22228;53.222;7.446;2022-09-21T05:42:31;4.60;99.90
36186;DHT22;22228;53.222;7.446;2022-09-21T05:44:51;4.60;99.90
36186;DHT22;22228;53.222;7.446;2022-09-21T05:47:21;4.60;99.90
36186;DHT22;22228;53.222;7.446;2022-09-21T05:49:50;4.60;99.90
36186;DHT22;22228;53.222;7.446;2022-09-21T05:52:22;4.70;99.90
36186;DHT22;22228;53.222;7.446;2022-09-21T05:54:55;4.70;99.90
36186;DHT22;22228;53.222;7.446;2022-09-21T05:57:26;4.70;99.90
36186;DHT22;22228;53.222;7.446;2022-09-21T05:59:59;4.70;99.90
36186;DHT22;22228;53.222;7.446;2022-09-21T06:02:48;4.80;99.90
36186;DHT22;22228;53.222;7.446;2022-09-21T06:05:11;4.80;99.90
36186;DHT22;22228;53.222;7.446;2022-09-21T06:07:31;4.90;99.90
36186;DHT22;22228;53.222;7.446;2022-09-21T06:09:52;4.90;99.90
36186;DHT22;22228;53.222;7.446;2022-09-21T06:12:12;4.90;99.90
36186;DHT22;22228;53.222;7.446;2022-09-21T06:14:34;5.00;99.90
36186;DHT22;22228;53.222;7.446;2022-09-21T06:16:55;5.00;99.90
36186;DHT22;22228;53.222;7.446;2022-09-21T06:19:15;5.10;99.90
36186;DHT22;22228;53.222;7.446;2022-09-21T06:21:35;5.10;99.90
36186;DHT22;22228;53.222;7.446;2022-09-21T06:23:56;5.20;99.90
36186;DHT22;22228;53.222;7.446;2022-09-21T06:26:16;5.30;99.90
36186;DHT22;22228;53.222;7.446;2022-09-21T06:28:37;5.40;99.90
36186;DHT22;22228;53.222;7.446;2022-09-21T06:30:58;5.50;99.90
36186;DHT22;22228;53.222;7.446;2022-09-21T06:33:19;5.60;99.90
36186;DHT22;22228;53.222;7.446;2022-09-21T06:35:41;5.70;99.90
36186;DHT22;22228;53.222;7.446;2022-09-21T06:38:03;5.80;99.90
36186;DHT22;22228;53.222;7.446;2022-09-21T06:40:25;5.90;99.90
36186;DHT22;22228;53.222;7.446;2022-09-21T06:42:45;6.00;99.90
36186;DHT22;22228;53.222;7.446;2022-09-21T06:45:07;6.10;99.90
36186;DHT22;22228;53.222;7.446;2022-09-21T06:47:29;6.20;99.90
36186;DHT22;22228;53.222;7.446;2022-09-21T06:49:49;6.20;99.90
36186;DHT22;22228;53.222;7.446;2022-09-21T06:52:12;6.30;99.90
36186;DHT22;22228;53.222;7.446;2022-09-21T06:54:32;6.40;99.90
36186;DHT22;22228;53.222;7.446;2022-09-21T06:56:53;6.50;99.90
36186;DHT22;22228;53.222;7.446;2022-09-21T06:59:14;6.60;99.90
36186;DHT22;22228;53.222;7.446;2022-09-21T07:01:34;6.70;99.90
36186;DHT22;22228;53.222;7.446;2022-09-21T07:03:56;6.80;99.90
36186;DHT22;22228;53.222;7.446;2022-09-21T07:06:17;6.90;99.90
36186;DHT22;22228;53.222;7.446;2022-09-21T07:08:38;7.10;99.90
36186;DHT22;22228;53.222;7.446;2022-09-21T07:10:59;7.20;99.90
36186;DHT22;22228;53.222;7.446;2022-09-21T07:13:20;7.30;99.90
36186;DHT22;22228;53.222;7.446;2022-09-21T07:15:42;7.40;99.90
36186;DHT22;22228;53.222;7.446;2022-09-21T07:18:09;7.50;99.90
36186;DHT22;22228;53.222;7.446;2022-09-21T07:20:31;7.60;99.90
36186;DHT22;22228;53.222;7.446;2022-09-21T07:22:52;7.70;99.90
36186;DHT22;22228;53.222;7.446;2022-09-21T07:25:12;7.80;99.90
36186;DHT22;22228;53.222;7.446;2022-09-21T07:27:33;8.00;99.90
36186;DHT22;22228;53.222;7.446;2022-09-21T07:29:54;8.20;99.90
36186;DHT22;22228;53.222;7.446;2022-09-21T07:32:15;8.30;99.90
36186;DHT22;22228;53.222;7.446;2022-09-21T07:34:35;8.40;99.90
36186;DHT22;22228;53.222;7.446;2022-09-21T07:36:57;8.60;99.90
36186;DHT22;22228;53.222;7.446;2022-09-21T07:39:18;8.70;99.90
36186;DHT22;22228;53.222;7.446;2022-09-21T07:41:38;8.80;99.90
36186;DHT22;22228;53.222;7.446;2022-09-21T07:43:59;9.00;99.90
36186;DHT22;22228;53.222;7.446;2022-09-21T07:46:20;9.10;99.90
36186;DHT22;22228;53.222;7.446;2022-09-21T07:48:40;9.20;99.90
36186;DHT22;22228;53.222;7.446;2022-09-21T07:51:01;9.30;99.90
36186;DHT22;22228;53.222;7.446;2022-09-21T07:53:25;9.50;99.90
36186;DHT22;22228;53.222;7.446;2022-09-21T07:55:46;9.60;99.90
36186;DHT22;22228;53.222;7.446;2022-09-21T07:58:06;9.70;99.90
36186;DHT22;22228;53.222;7.446;2022-09-21T08:00:44;9.90;99.90
36186;DHT22;22228;53.222;7.446;2022-09-21T08:03:05;10.00;99.90
36186;DHT22;22228;53.222;7.446;2022-09-21T08:05:26;10.10;99.90
36186;DHT22;22228;53.222;7.446;2022-09-21T08:07:46;10.20;99.90
36186;DHT22;22228;53.222;7.446;2022-09-21T08:10:08;10.30;99.90
36186;DHT22;22228;53.222;7.446;2022-09-21T08:12:29;10.40;99.90
36186;DHT22;22228;53.222;7.446;2022-09-21T08:14:49;10.60;99.90
36186;DHT22;22228;53.222;7.446;2022-09-21T08:17:10;10.70;99.90
36186;DHT22;22228;53.222;7.446;2022-09-21T08:19:30;10.70;99.90
36186;DHT22;22228;53.222;7.446;2022-09-21T08:21:51;10.80;99.90
36186;DHT22;22228;53.222;7.446;2022-09-21T08:24:11;10.90;99.90
36186;DHT22;22228;53.222;7.446;2022-09-21T08:26:33;11.00;99.90
36186;DHT22;22228;53.222;7.446;2022-09-21T08:28:54;11.10;99.90
36186;DHT22;22228;53.222;7.446;2022-09-21T08:31:17;11.20;99.90
36186;DHT22;22228;53.222;7.446;2022-09-21T08:33:39;11.20;99.90
36186;DHT22;22228;53.222;7.446;2022-09-21T08:36:00;11.20;99.90
36186;DHT22;22228;53.222;7.446;2022-09-21T08:38:21;11.30;99.90
36186;DHT22;22228;53.222;7.446;2022-09-21T08:40:42;11.50;99.90
36186;DHT22;22228;53.222;7.446;2022-09-21T08:43:07;11.60;99.90
36186;DHT22;22228;53.222;7.446;2022-09-21T08:45:32;11.80;99.90
36186;DHT22;22228;53.222;7.446;2022-09-21T08:47:56;11.90;99.90
36186;DHT22;22228;53.222;7.446;2022-09-21T08:50:25;12.00;99.90
36186;DHT22;22228;53.222;7.446;2022-09-21T08:52:48;12.20;99.90
36186;DHT22;22228;53.222;7.446;2022-09-21T08:55:15;12.30;99.90
36186;DHT22;22228;53.222;7.446;2022-09-21T08:57:36;12.50;99.90
36186;DHT22;22228;53.222;7.446;2022-09-21T08:59:59;12.50;99.90
36186;DHT22;22228;53.222;7.446;2022-09-21T09:02:40;12.60;99.90
36186;DHT22;22228;53.222;7.446;2022-09-21T09:05:11;12.70;99.90
36186;DHT22;22228;53.222;7.446;2022-09-21T09:07:51;12.80;99.90
36186;DHT22;22228;53.222;7.446;2022-09-21T09:10:29;12.90;99.90
36186;DHT22;22228;53.222;7.446;2022-09-21T09:13:00;12.90;99.90
36186;DHT22;22228;53.222;7.446;2022-09-21T09:15:40;13.00;99.90
36186;DHT22;22228;53.222;7.446;2022-09-21T09:18:10;13.10;99.90
36186;DHT22;22228;53.222;7.446;2022-09-21T09:20:35;13.20;99.90
36186;DHT22;22228;53.222;7.446;2022-09-21T09:23:04;13.30;99.90
36186;DHT22;22228;53.222;7.446;2022-09-21T09:25:26;13.50;99.90
36186;DHT22;22228;53.222;7.446;2022-09-21T09:27:53;13.70;99.90
36186;DHT22;22228;53.222;7.446;2022-09-21T09:30:19;13.80;99.90
36186;DHT22;22228;53.222;7.446;2022-09-21T09:32:48;13.90;99.90
36186;DHT22;22228;53.222;7.446;2022-09-21T09:35:18;14.00;99.90
36186;DHT22;22228;53.222;7.446;2022-09-21T09:37:41;14.10;99.90
36186;DHT22;22228;53.222;7.446;2022-09-21T09:40:05;14.20;99.90
36186;DHT22;22228;53.222;7.446;2022-09-21T09:42:40;14.40;99.90
36186;DHT22;22228;53.222;7.446;2022-09-21T09:45:17;14.50;99.90
36186;DHT22;22228;53.222;7.446;2022-09-21T09:47:53;14.60;99.90
36186;DHT22;22228;53.222;7.446;2022-09-21T09:50:22;14.70;99.90
36186;DHT22;22228;53.222;7.446;2022-09-21T09:52:46;14.80;99.90
36186;DHT22;22228;53.222;7.446;2022-09-21T09:55:16;14.90;99.90
36186;DHT22;22228;53.222;7.446;2022-09-21T09:57:38;15.10;99.90
36186;DHT22;22228;53.222;7.446;2022-09-21T10:00:01;15.20;99.90
36186;DHT22;22228;53.222;7.446;2022-09-21T10:02:31;15.20;99.90
36186;DHT22;22228;53.222;7.446;2022-09-21T10:04:58;15.30;99.90
36186;DHT22;22228;53.222;7.446;2022-09-21T10:07:33;15.30;99.90
36186;DHT22;22228;53.222;7.446;2022-09-21T10:09:54;15.40;99.90
36186;DHT22;22228;53.222;7.446;2022-09-21T10:12:18;15.50;99.90
36186;DHT22;22228;53.222;7.446;2022-09-21T10:14:48;15.50;99.90
36186;DHT22;22228;53.222;7.446;2022-09-21T10:17:15;15.60;99.90
36186;DHT22;22228;53.222;7.446;2022-09-21T10:19:36;15.70;99.90
36186;DHT22;22228;53.222;7.446;2022-09-21T10:21:59;15.80;99.90
36186;DHT22;22228;53.222;7.446;2022-09-21T10:24:23;15.80;99.90
36186;DHT22;22228;53.222;7.446;2022-09-21T10:26:47;15.70;99.90
36186;DHT22;22228;53.222;7.446;2022-09-21T10:29:17;15.60;99.90
36186;DHT22;22228;53.222;7.446;2022-09-21T10:31:53;15.50;99.90
36186;DHT22;22228;53.222;7.446;2022-09-21T10:34:15;15.60;99.90
36186;DHT22;22228;53.222;7.446;2022-09-21T10:36:49;15.60;99.90
36186;DHT22;22228;53.222;7.446;2022-09-21T10:39:23;15.90;99.90
36186;DHT22;22228;53.222;7.446;2022-09-21T10:41:50;16.20;99.90
36186;DHT22;22228;53.222;7.446;2022-09-21T10:44:15;16.40;99.90
36186;DHT22;22228;53.222;7.446;2022-09-21T10:46:35;16.50;99.90
36186;DHT22;22228;53.222;7.446;2022-09-21T10:48:56;16.60;99.90
36186;DHT22;22228;53.222;7.446;2022-09-21T10:51:40;16.50;99.90
36186;DHT22;22228;53.222;7.446;2022-09-21T10:54:07;16.60;99.90
36186;DHT22;22228;53.222;7.446;2022-09-21T10:56:29;16.60;99.90
36186;DHT22;22228;53.222;7.446;2022-09-21T10:59:10;16.50;99.90
36186;DHT22;22228;53.222;7.446;2022-09-21T11:01:31;16.30;99.90
36186;DHT22;22228;53.222;7.446;2022-09-21T11:03:57;16.20;99.90
36186;DHT22;22228;53.222;7.446;2022-09-21T11:06:22;16.20;99.90
36186;DHT22;22228;53.222;7.446;2022-09-21T11:08:48;16.20;99.90
36186;DHT22;22228;53.222;7.446;2022-09-21T11:11:31;16.10;99.90
36186;DHT22;22228;53.222;7.446;2022-09-21T11:14:02;15.90;99.90
36186;DHT22;22228;53.222;7.446;2022-09-21T11:16:27;15.70;99.90
36186;DHT22;22228;53.222;7.446;2022-09-21T11:18:54;15.70;99.90
36186;DHT22;22228;53.222;7.446;2022-09-21T11:21:21;15.60;99.90
36186;DHT22;22228;53.222;7.446;2022-09-21T11:23:50;15.50;99.90
36186;DHT22;22228;53.222;7.446;2022-09-21T11:26:14;15.50;99.90
36186;DHT22;22228;53.222;7.446;2022-09-21T11:28:42;15.60;99.90
36186;DHT22;22228;53.222;7.446;2022-09-21T11:31:14;15.80;99.90
36186;DHT22;22228;53.222;7.446;2022-09-21T11:33:50;15.90;99.90
36186;DHT22;22228;53.222;7.446;2022-09-21T11:36:19;15.90;99.90
36186;DHT22;22228;53.222;7.446;2022-09-21T11:38:52;15.90;99.90
36186;DHT22;22228;53.222;7.446;2022-09-21T11:41:43;15.80;99.90
36186;DHT22;22228;53.222;7.446;2022-09-21T11:44:22;15.90;99.90
36186;DHT22;22228;53.222;7.446;2022-09-21T11:46:48;15.90;99.90
36186;DHT22;22228;53.222;7.446;2022-09-21T11:49:25;15.90;99.90
36186;DHT22;22228;53.222;7.446;2022-09-21T11:52:08;15.90;99.90
36186;DHT22;22228;53.222;7.446;2022-09-21T11:54:49;16.00;99.90
36186;DHT22;22228;53.222;7.446;2022-09-21T11:57:17;16.00;99.90
36186;DHT22;22228;53.222;7.446;2022-09-21T11:59:53;15.90;99.90
36186;DHT22;22228;53.222;7.446;2022-09-21T12:02:32;15.80;99.90
36186;DHT22;22228;53.222;7.446;2022-09-21T12:04:59;15.70;99.90
36186;DHT22;22228;53.222;7.446;2022-09-21T12:07:35;15.70;99.90
36186;DHT22;22228;53.222;7.446;2022-09-21T12:10:29;15.60;99.90
36186;DHT22;22228;53.222;7.446;2022-09-21T12:12:56;15.60;99.90
36186;DHT22;22228;53.222;7.446;2022-09-21T12:15:22;15.60;99.90
36186;DHT22;22228;53.222;7.446;2022-09-21T12:17:51;15.80;99.90
36186;DHT22;22228;53.222;7.446;2022-09-21T12:20:18;15.80;99.90
36186;DHT22;22228;53.222;7.446;2022-09-21T12:22:42;15.80;99.90
36186;DHT22;22228;53.222;7.446;2022-09-21T12:25:12;15.90;99.90
36186;DHT22;22228;53.222;7.446;2022-09-21T12:27:40;15.90;99.90
36186;DHT22;22228;53.222;7.446;2022-09-21T12:30:03;15.90;99.90
36186;DHT22;22228;53.222;7.446;2022-09-21T12:32:35;15.90;99.90
36186;DHT22;22228;53.222;7.446;2022-09-21T12:34:58;15.90;99.90
36186;DHT22;22228;53.222;7.446;2022-09-21T12:37:22;15.90;99.90
36186;DHT22;22228;53.222;7.446;2022-09-21T12:39:49;16.10;99.90
36186;DHT22;22228;53.222;7.446;2022-09-21T12:42:22;16.20;99.90
36186;DHT22;22228;53.222;7.446;2022-09-21T12:44:48;16.40;99.90
36186;DHT22;22228;53.222;7.446;2022-09-21T12:47:14;16.40;99.90
36186;DHT22;22228;53.222;7.446;2022-09-21T12:49:41;16.50;99.90
36186;DHT22;22228;53.222;7.446;2022-09-21T12:52:03;16.50;99.90
36186;DHT22;22228;53.222;7.446;2022-09-21T12:54:31;16.50;99.90
36186;DHT22;22228;53.222;7.446;2022-09-21T12:57:00;16.50;99.90
36186;DHT22;22228;53.222;7.446;2022-09-21T12:59:30;16.60;99.90
36186;DHT22;22228;53.222;7.446;2022-09-21T13:01:57;16.60;99.90
36186;DHT22;22228;53.222;7.446;2022-09-21T13:04:44;16.50;99.90
36186;DHT22;22228;53.222;7.446;2022-09-21T13:07:28;16.50;99.90
36186;DHT22;22228;53.222;7.446;2022-09-21T13:09:51;16.50;99.90
36186;DHT22;22228;53.222;7.446;2022-09-21T13:12:15;16.50;99.90
36186;DHT22;22228;53.222;7.446;2022-09-21T13:14:42;16.60;99.90
36186;DHT22;22228;53.222;7.446;2022-09-21T13:17:05;16.60;99.90
36186;DHT22;22228;53.222;7.446;2022-09-21T13:19:27;16.80;99.90
36186;DHT22;22228;53.222;7.446;2022-09-21T13:22:09;16.90;99.90
36186;DHT22;22228;53.222;7.446;2022-09-21T13:24:32;16.90;99.90
36186;DHT22;22228;53.222;7.446;2022-09-21T13:26:55;16.90;99.90
36186;DHT22;22228;53.222;7.446;2022-09-21T13:29:29;17.00;99.90
36186;DHT22;22228;53.222;7.446;2022-09-21T13:31:54;16.90;99.90
36186;DHT22;22228;53.222;7.446;2022-09-21T13:34:24;16.80;99.90
36186;DHT22;22228;53.222;7.446;2022-09-21T13:43:16;16.50;99.90
36186;DHT22;22228;53.222;7.446;2022-09-21T13:45:53;16.50;99.90
36186;DHT22;22228;53.222;7.446;2022-09-21T13:48:19;16.60;99.90
36186;DHT22;22228;53.222;7.446;2022-09-21T13:50:47;16.70;99.90
36186;DHT22;22228;53.222;7.446;2022-09-21T13:53:17;16.60;99.90
36186;DHT22;22228;53.222;7.446;2022-09-21T13:55:40;16.50;99.90
36186;DHT22;22228;53.222;7.446;2022-09-21T13:58:20;16.40;99.90
36186;DHT22;22228;53.222;7.446;2022-09-21T14:00:50;16.20;99.90
36186;DHT22;22228;53.222;7.446;2022-09-21T14:03:23;16.10;99.90
36186;DHT22;22228;53.222;7.446;2022-09-21T14:05:45;16.00;99.90
36186;DHT22;22228;53.222;7.446;2022-09-21T14:08:19;15.90;99.90
36186;DHT22;22228;53.222;7.446;2022-09-21T14:10:49;15.90;99.90
36186;DHT22;22228;53.222;7.446;2022-09-21T14:13:25;15.90;99.90
36186;DHT22;22228;53.222;7.446;2022-09-21T14:15:47;16.00;99.90
36186;DHT22;22228;53.222;7.446;2022-09-21T14:18:20;16.00;99.90
36186;DHT22;22228;53.222;7.446;2022-09-21T14:21:11;16.00;99.90
36186;DHT22;22228;53.222;7.446;2022-09-21T14:23:35;15.90;99.90
36186;DHT22;22228;53.222;7.446;2022-09-21T14:25:57;15.90;99.90
36186;DHT22;22228;53.222;7.446;2022-09-21T14:28:30;15.90;99.90
36186;DHT22;22228;53.222;7.446;2022-09-21T14:30:55;15.90;99.90
36186;DHT22;22228;53.222;7.446;2022-09-21T14:33:29;16.00;99.90
36186;DHT22;22228;53.222;7.446;2022-09-21T14:35:51;16.00;99.90
36186;DHT22;22228;53.222;7.446;2022-09-21T14:38:18;16.10;99.90
36186;DHT22;22228;53.222;7.446;2022-09-21T14:40:45;16.20;99.90
36186;DHT22;22228;53.222;7.446;2022-09-21T14:43:08;16.40;99.90
36186;DHT22;22228;53.222;7.446;2022-09-21T14:45:48;16.50;99.90
36186;DHT22;22228;53.222;7.446;2022-09-21T14:48:22;16.50;99.90
36186;DHT22;22228;53.222;7.446;2022-09-21T14:50:53;16.60;99.90
36186;DHT22;22228;53.222;7.446;2022-09-21T14:53:36;16.70;99.90
36186;DHT22;22228;53.222;7.446;2022-09-21T14:56:08;16.80;99.90
36186;DHT22;22228;53.222;7.446;2022-09-21T14:58:42;16.90;99.90
36186;DHT22;22228;53.222;7.446;2022-09-21T15:01:35;17.10;99.90
36186;DHT22;22228;53.222;7.446;2022-09-21T15:04:08;17.10;99.90
36186;DHT22;22228;53.222;7.446;2022-09-21T15:06:36;17.10;99.90
36186;DHT22;22228;53.222;7.446;2022-09-21T15:09:34;17.00;99.90
36186;DHT22;22228;53.222;7.446;2022-09-21T15:12:19;17.00;99.90
36186;DHT22;22228;53.222;7.446;2022-09-21T15:14:45;17.10;99.90
36186;DHT22;22228;53.222;7.446;2022-09-21T15:17:22;17.10;99.90
36186;DHT22;22228;53.222;7.446;2022-09-21T15:19:44;17.20;99.90
36186;DHT22;22228;53.222;7.446;2022-09-21T15:22:15;18.10;99.90
36186;DHT22;22228;53.222;7.446;2022-09-21T15:24:35;20.20;99.90
36186;DHT22;22228;53.222;7.446;2022-09-21T15:27:03;21.80;99.90
36186;DHT22;22228;53.222;7.446;2022-09-21T15:29:26;22.50;99.90
36186;DHT22;22228;53.222;7.446;2022-09-21T15:31:48;21.70;99.90
36186;DHT22;22228;53.222;7.446;2022-09-21T15:34:12;21.20;99.90
36186;DHT22;22228;53.222;7.446;2022-09-21T15:36:36;21.80;99.90
36186;DHT22;22228;53.222;7.446;2022-09-21T15:38:57;22.40;99.90